Simpson, Kansas
Current Conditions -  °F | °C
As of 2:55 PM on Friday 19 Dec 2014 (Local Time) from KCNK Reporting Station
Overcast Overcast  
Wind Chill: 24°   Ceiling: 1900
Heat Index: 33°   Visibility: 7mi
Dew Point: 30°   Wind: 13mph
Humidity: 89%   Direction: 170°S
Pressure: 30.14"   Gusts: NA
Location:  39.39°N, 97.93°W
Report Text: KCNK 192055Z AUTO 17011KT 7SM OVC019 01/M01 A3014 RMK AO2 SLP220 T00061011 56021
Loading
Personal Weather Stations






























Interactive Weather Map New forecast layout! Learn more

10-Day Weather Forecast

Advertisements
Track Severe Weather on mobile